createdAt,value
2019-04-11T00:00:11.113Z,13.93
2019-04-11T00:02:41.393Z,13.33
2019-04-11T00:05:12.466Z,13.50
2019-04-11T00:07:42.801Z,13.67
2019-04-11T00:10:14.402Z,13.50
2019-04-11T00:12:44.474Z,12.67
2019-04-11T00:15:14.527Z,14.07
2019-04-11T00:17:44.528Z,13.97
2019-04-11T00:20:14.496Z,14.33
2019-04-11T00:22:44.509Z,13.57
2019-04-11T00:25:15.593Z,14.07
2019-04-11T00:27:45.751Z,14.13
2019-04-11T00:30:15.790Z,13.97
2019-04-11T00:32:45.769Z,13.93
2019-04-11T00:35:15.729Z,13.33
2019-04-11T00:37:45.788Z,13.27
2019-04-11T00:40:15.756Z,14.70
2019-04-11T00:42:47.046Z,12.47
2019-04-11T00:45:17.185Z,14.13
2019-04-11T00:47:47.181Z,13.33
2019-04-11T00:50:17.146Z,14.90
2019-04-11T00:52:47.599Z,14.37
2019-04-11T00:55:17.692Z,13.63
2019-04-11T00:57:47.685Z,15.63
2019-04-11T01:00:18.651Z,13.33
2019-04-11T01:02:49.588Z,13.80
2019-04-11T01:05:19.684Z,14.10
2019-04-11T01:07:49.674Z,14.33
2019-04-11T01:10:20.335Z,14.80
2019-04-11T01:12:51.284Z,14.47
2019-04-11T01:15:23.794Z,14.13
2019-04-11T01:17:53.906Z,14.37
2019-04-11T01:20:23.927Z,14.00
2019-04-11T01:22:54.257Z,14.10
2019-04-11T01:25:24.443Z,13.97
2019-04-11T01:27:54.486Z,14.77
2019-04-11T01:30:30.639Z,13.33
2019-04-11T01:33:00.892Z,14.10
2019-04-11T01:35:31.091Z,15.20
2019-04-11T01:38:01.233Z,12.60
2019-04-11T01:40:31.906Z,13.83
2019-04-11T01:43:02.111Z,13.80
2019-04-11T01:45:32.074Z,15.30
2019-04-11T01:48:12.753Z,14.60
2019-04-11T01:50:43.283Z,14.27
2019-04-11T01:53:13.394Z,14.33
2019-04-11T01:55:43.386Z,15.70
2019-04-11T01:58:14.229Z,13.17
2019-04-11T02:01:06.521Z,14.73
2019-04-11T02:04:00.371Z,13.63
2019-04-11T02:06:30.414Z,13.13
2019-04-11T02:09:00.391Z,14.60
2019-04-11T02:11:31.755Z,14.43
2019-04-11T02:14:10.451Z,14.43
2019-04-11T02:16:34.797Z,14.70
2019-04-11T02:19:04.981Z,12.87
2019-04-11T02:21:35.915Z,13.50
2019-04-11T02:24:27.990Z,13.20
2019-04-11T02:27:14.771Z,13.30
2019-04-11T02:29:46.754Z,12.70
2019-04-11T02:32:18.549Z,14.10
2019-04-11T02:34:50.434Z,12.80
2019-04-11T02:37:21.802Z,13.10
2019-04-11T02:39:53.527Z,13.83
2019-04-11T02:42:25.407Z,14.90
2019-04-11T02:45:11.468Z,15.43
2019-04-11T02:47:31.927Z,14.30
2019-04-11T02:49:59.208Z,15.43
2019-04-11T02:52:29.456Z,15.00
2019-04-11T02:55:00.708Z,14.97
2019-04-11T02:57:32.236Z,15.60
2019-04-11T03:00:04.252Z,13.87
2019-04-11T03:02:34.704Z,15.63
2019-04-11T03:05:06.970Z,14.60
2019-04-11T03:07:38.079Z,16.83
2019-04-11T03:10:11.345Z,15.13
2019-04-11T03:12:40.515Z,13.60
2019-04-11T03:15:27.157Z,13.63
2019-04-11T03:17:45.193Z,14.20
2019-04-11T03:20:25.808Z,15.27
2019-04-11T03:22:53.064Z,14.67
2019-04-11T03:25:18.447Z,14.30
2019-04-11T03:27:49.475Z,13.63
2019-04-11T03:30:30.251Z,13.10
2019-04-11T03:38:21.341Z,13.13
2019-04-11T03:40:48.034Z,13.47
2019-04-11T03:43:10.162Z,13.30
2019-04-11T03:45:49.645Z,14.03
2019-04-11T03:48:18.130Z,13.87
2019-04-11T03:50:37.122Z,13.03
2019-04-11T03:53:09.305Z,12.77
2019-04-11T03:55:39.079Z,12.43
2019-04-11T03:58:09.230Z,11.67
2019-04-11T04:00:43.143Z,11.60
2019-04-11T04:03:11.305Z,11.50
2019-04-11T04:05:44.427Z,11.67
2019-04-11T04:08:14.663Z,11.93
2019-04-11T04:11:12.159Z,11.33
2019-04-11T04:13:47.809Z,11.53
2019-04-11T04:16:47.825Z,11.13
2019-04-11T04:19:32.565Z,10.90
2019-04-11T04:22:07.391Z,11.70
2019-04-11T04:24:40.449Z,12.17
2019-04-11T04:27:10.307Z,12.10
2019-04-11T04:29:41.377Z,13.47
2019-04-11T04:32:12.127Z,13.50
2019-04-11T04:34:44.356Z,12.23
2019-04-11T04:37:16.191Z,12.07
2019-04-11T04:39:48.101Z,11.53
2019-04-11T04:42:25.006Z,11.03
2019-04-11T04:44:51.022Z,10.47
2019-04-11T04:47:30.234Z,10.87
2019-04-11T04:49:54.213Z,10.47
2019-04-11T04:52:25.210Z,10.93
2019-04-11T04:54:57.745Z,10.10
2019-04-11T04:57:29.714Z,9.43
2019-04-11T05:00:00.153Z,10.40
2019-04-11T05:02:35.561Z,10.47
2019-04-11T05:05:07.233Z,10.67
2019-04-11T05:07:40.163Z,9.63
2019-04-11T05:10:09.106Z,10.53
2019-04-11T05:12:39.217Z,10.10
2019-04-11T05:15:10.014Z,9.40
2019-04-11T05:17:41.800Z,10.13
2019-04-11T05:20:12.001Z,10.10
2019-04-11T05:22:42.082Z,10.47
2019-04-11T05:25:12.601Z,9.77
2019-04-11T05:27:42.697Z,9.73
2019-04-11T05:30:12.685Z,9.07
2019-04-11T05:32:42.674Z,9.27
2019-04-11T05:35:12.637Z,8.33
2019-04-11T05:37:42.967Z,9.47
2019-04-11T05:40:13.218Z,8.85
2019-04-11T05:42:43.329Z,9.10
2019-04-11T05:45:18.238Z,8.37
2019-04-11T05:47:46.156Z,8.17
2019-04-11T05:50:26.475Z,9.50
2019-04-11T05:53:00.049Z,8.70
2019-04-11T05:55:32.115Z,8.77
2019-04-11T05:58:05.903Z,7.67
2019-04-11T06:00:50.068Z,8.40
2019-04-11T06:03:20.066Z,8.20
2019-04-11T06:05:56.348Z,8.70
2019-04-11T06:08:28.537Z,7.83
2019-04-11T06:11:09.547Z,7.97
2019-04-11T06:13:44.692Z,8.43
2019-04-11T06:16:14.738Z,7.57
2019-04-11T06:19:04.676Z,7.67
2019-04-11T06:21:42.266Z,7.80
2019-04-11T06:24:48.228Z,7.97
2019-04-11T06:27:31.324Z,7.87
2019-04-11T06:30:21.038Z,8.30
2019-04-11T06:33:13.201Z,9.00
2019-04-11T06:35:54.482Z,8.13
2019-04-11T06:38:58.992Z,8.60
2019-04-11T06:41:47.190Z,8.63
2019-04-11T06:44:32.044Z,9.10
2019-04-11T06:47:14.008Z,7.83
2019-04-11T06:49:51.497Z,9.70
2019-04-11T06:52:34.879Z,8.50
2019-04-11T06:55:26.898Z,8.50
2019-04-11T06:58:02.706Z,7.97
2019-04-11T07:00:33.613Z,8.57
2019-04-11T07:03:04.103Z,7.73
2019-04-11T07:05:36.222Z,6.63
2019-04-11T07:08:07.565Z,5.20
2019-04-11T07:10:46.737Z,7.87
2019-04-11T07:13:33.669Z,8.60
2019-04-11T07:16:04.792Z,7.60
2019-04-11T07:18:57.022Z,8.40
2019-04-11T07:21:33.282Z,7.00
2019-04-11T07:24:25.340Z,8.20
2019-04-11T07:27:07.468Z,8.80
2019-04-11T07:29:58.513Z,8.90
2019-04-11T07:32:29.926Z,7.47
2019-04-11T07:35:17.729Z,8.37
2019-04-11T07:37:49.503Z,7.80
2019-04-11T07:40:58.756Z,7.80
2019-04-11T07:43:31.508Z,8.83
2019-04-11T07:46:25.194Z,6.73
2019-04-11T07:49:05.934Z,7.30
2019-04-11T07:51:49.094Z,8.57
2019-04-11T07:54:20.847Z,7.03
2019-04-11T07:57:06.939Z,8.20
2019-04-11T07:59:53.469Z,7.53
2019-04-11T08:02:41.268Z,6.67
2019-04-11T08:05:30.146Z,7.87
2019-04-11T08:08:17.870Z,7.00
2019-04-11T08:10:58.121Z,8.00
2019-04-11T08:13:32.624Z,5.63
2019-04-11T08:16:20.448Z,6.47
2019-04-11T08:19:09.717Z,5.70
2019-04-11T08:22:04.914Z,5.73
2019-04-11T08:24:54.049Z,4.93
2019-04-11T08:27:29.428Z,6.40
2019-04-11T08:30:00.372Z,5.70
2019-04-11T08:32:56.577Z,5.07
2019-04-11T08:35:53.673Z,5.50
2019-04-11T08:38:28.917Z,5.70
2019-04-11T08:41:33.919Z,6.67
2019-04-11T08:44:09.834Z,5.07
2019-04-11T08:46:42.738Z,5.17
2019-04-11T08:49:33.203Z,4.53
2019-04-11T08:52:07.723Z,4.10
2019-04-11T08:54:55.758Z,6.30
2019-04-11T08:57:51.840Z,5.27
2019-04-11T09:00:44.847Z,6.07
2019-04-11T09:03:59.256Z,6.10
2019-04-11T09:06:24.891Z,5.40
2019-04-11T09:09:17.088Z,6.17
2019-04-11T09:11:56.162Z,5.83
2019-04-11T09:15:00.613Z,5.27
2019-04-11T09:17:38.665Z,4.60
2019-04-11T09:20:29.768Z,6.17
2019-04-11T09:23:05.849Z,4.50
2019-04-11T09:26:01.581Z,6.37
2019-04-11T09:28:46.874Z,5.23
2019-04-11T09:31:42.223Z,4.73
2019-04-11T09:34:30.880Z,5.40
2019-04-11T09:37:22.604Z,5.80
2019-04-11T09:40:26.093Z,4.97
2019-04-11T09:43:11.633Z,4.50
2019-04-11T09:46:20.041Z,3.90
2019-04-11T09:49:24.036Z,4.10
2019-04-11T09:52:06.051Z,5.77
2019-04-11T09:54:55.441Z,6.10
2019-04-11T09:57:34.521Z,5.57
2019-04-11T10:00:26.391Z,5.07
2019-04-11T10:03:03.153Z,5.00
2019-04-11T10:05:48.298Z,4.73
2019-04-11T10:08:39.444Z,4.90
2019-04-11T10:11:34.800Z,5.37
2019-04-11T10:14:07.356Z,6.20
2019-04-11T10:17:06.686Z,5.50
2019-04-11T10:19:48.671Z,5.67
2019-04-11T10:22:29.802Z,5.50
2019-04-11T10:25:28.843Z,4.90
2019-04-11T10:28:30.370Z,4.30
2019-04-11T10:31:04.545Z,6.67
2019-04-11T10:33:55.441Z,5.57
2019-04-11T10:36:31.430Z,6.73
2019-04-11T10:39:18.179Z,5.70
2019-04-11T10:41:50.646Z,6.37
2019-04-11T10:44:25.960Z,5.40
2019-04-11T10:47:01.871Z,4.80
2019-04-11T10:49:50.555Z,5.87
2019-04-11T10:52:29.201Z,6.70
2019-04-11T10:55:07.910Z,4.77
2019-04-11T10:57:42.958Z,7.23
2019-04-11T11:00:19.513Z,6.20
2019-04-11T11:03:04.401Z,6.60
2019-04-11T11:05:35.317Z,6.63
2019-04-11T11:08:11.905Z,6.10
2019-04-11T11:10:41.924Z,6.60
2019-04-11T11:13:23.653Z,6.30
2019-04-11T11:15:57.971Z,5.23
2019-04-11T11:19:19.443Z,6.43
2019-04-11T11:21:30.566Z,5.70
2019-04-11T11:24:21.851Z,5.27
2019-04-11T11:26:55.569Z,5.97
2019-04-11T11:29:47.491Z,5.83
2019-04-11T11:32:25.272Z,5.57
2019-04-11T11:35:25.120Z,5.90
2019-04-11T11:37:57.519Z,5.73
2019-04-11T11:40:50.083Z,5.30
2019-04-11T11:43:25.363Z,4.93
2019-04-11T11:46:26.674Z,4.63
2019-04-11T11:49:04.394Z,5.63
2019-04-11T11:51:39.405Z,5.40
2019-04-11T11:54:15.624Z,5.20
2019-04-11T11:56:47.374Z,5.00
2019-04-11T11:59:52.384Z,5.00
2019-04-11T12:02:36.898Z,5.33
2019-04-11T12:05:18.524Z,4.60
2019-04-11T12:07:55.891Z,5.53
2019-04-11T12:10:47.066Z,4.90
2019-04-11T12:13:45.463Z,4.90
2019-04-11T12:16:34.734Z,5.10
2019-04-11T12:19:24.854Z,5.47
2019-04-11T12:21:56.422Z,5.00
2019-04-11T12:24:44.994Z,5.13
2019-04-11T12:27:26.817Z,4.33
2019-04-11T12:30:20.976Z,4.93
2019-04-11T12:33:07.363Z,5.03
2019-04-11T12:35:47.071Z,5.10
2019-04-11T12:38:24.665Z,4.40
2019-04-11T12:41:09.671Z,3.43
2019-04-11T12:43:53.440Z,4.70
2019-04-11T12:46:41.273Z,4.77
2019-04-11T12:49:25.866Z,4.93
2019-04-11T12:52:14.373Z,4.47
2019-04-11T12:54:45.051Z,4.40
2019-04-11T12:57:32.904Z,4.37
2019-04-11T13:00:13.142Z,4.87
2019-04-11T13:03:02.341Z,4.90
2019-04-11T13:05:32.530Z,4.60
2019-04-11T13:08:30.785Z,3.90
2019-04-11T13:11:00.760Z,5.30
2019-04-11T13:13:39.257Z,4.70
2019-04-11T13:16:14.395Z,3.57
2019-04-11T13:19:03.336Z,4.47
2019-04-11T13:21:53.083Z,2.50
2019-04-11T13:24:57.298Z,4.47
2019-04-11T13:27:34.561Z,4.90
2019-04-11T13:30:23.186Z,4.27
2019-04-11T13:33:05.539Z,4.17
2019-04-11T13:35:58.838Z,5.60
2019-04-11T13:38:53.807Z,4.40
2019-04-11T13:41:41.570Z,4.50
2019-04-11T13:44:20.732Z,5.23
2019-04-11T13:47:09.629Z,4.93
2019-04-11T13:49:44.826Z,5.33
2019-04-11T13:52:33.847Z,4.30
2019-04-11T13:55:28.671Z,3.40
2019-04-11T13:58:17.652Z,5.07
2019-04-11T14:00:49.452Z,4.30
2019-04-11T14:03:44.703Z,5.60
2019-04-11T14:06:34.731Z,4.80
2019-04-11T14:09:39.787Z,5.00
2019-04-11T14:12:12.955Z,5.93
2019-04-11T14:15:05.945Z,5.20
2019-04-11T14:17:56.042Z,4.33
2019-04-11T14:20:32.224Z,4.50
2019-04-11T14:23:24.261Z,3.50
2019-04-11T14:26:12.116Z,4.30
2019-04-11T14:28:44.962Z,4.20
2019-04-11T14:31:34.454Z,5.10
2019-04-11T14:34:22.439Z,4.17
2019-04-11T14:37:08.597Z,5.50
2019-04-11T14:39:40.932Z,4.33
2019-04-11T14:42:30.257Z,4.83
2019-04-11T14:45:00.310Z,4.67
2019-04-11T14:47:39.182Z,5.30
2019-04-11T14:50:11.218Z,6.00
2019-04-11T14:52:58.885Z,5.80
2019-04-11T14:55:28.879Z,5.10
2019-04-11T14:58:17.817Z,5.57
2019-04-11T15:00:47.990Z,5.17
2019-04-11T15:03:49.206Z,5.20
2019-04-11T15:06:39.064Z,5.47
2019-04-11T15:09:33.826Z,3.63
2019-04-11T15:12:12.802Z,5.53
2019-04-11T15:15:19.259Z,5.67
2019-04-11T15:17:50.718Z,5.10
2019-04-11T15:20:54.390Z,5.10
2019-04-11T15:23:37.497Z,6.33
2019-04-11T15:26:25.073Z,5.87
2019-04-11T15:28:58.638Z,4.73
2019-04-11T15:31:48.497Z,5.47
2019-04-11T15:34:25.297Z,5.60
2019-04-11T15:37:25.863Z,5.20
2019-04-11T15:40:12.699Z,6.80
2019-04-11T15:43:01.537Z,4.37
2019-04-11T15:45:53.380Z,6.03
2019-04-11T15:48:42.305Z,5.63
2019-04-11T15:51:35.125Z,5.70
2019-04-11T15:54:27.361Z,4.97
2019-04-11T15:57:07.276Z,5.30
2019-04-11T15:59:56.194Z,5.47
2019-04-11T16:02:45.136Z,6.37
2019-04-11T16:05:49.496Z,5.40
2019-04-11T16:08:43.469Z,5.80
2019-04-11T16:11:34.273Z,5.73
2019-04-11T16:14:13.830Z,5.53
2019-04-11T16:16:59.013Z,5.90
2019-04-11T16:19:54.149Z,5.57
2019-04-11T16:22:43.388Z,5.03
2019-04-11T16:25:15.557Z,5.60
2019-04-11T16:28:08.154Z,5.30
2019-04-11T16:30:44.447Z,5.83
2019-04-11T16:33:36.149Z,5.83
2019-04-11T16:36:16.146Z,5.57
2019-04-11T16:39:14.190Z,5.50
2019-04-11T16:42:01.643Z,6.07
2019-04-11T16:45:00.118Z,5.20
2019-04-11T16:47:47.773Z,5.50
2019-04-11T16:50:17.866Z,6.07
2019-04-11T16:52:47.841Z,6.10
2019-04-11T16:55:17.833Z,6.23
2019-04-11T16:57:48.108Z,6.17
2019-04-11T17:00:20.568Z,5.17
2019-04-11T17:02:54.666Z,5.87
2019-04-11T17:05:24.076Z,5.20
2019-04-11T17:08:16.071Z,5.23
2019-04-11T17:11:07.856Z,5.60
2019-04-11T17:13:37.978Z,5.17
2019-04-11T17:16:11.485Z,5.60
2019-04-11T17:18:46.129Z,5.30
2019-04-11T17:21:16.192Z,4.83
2019-04-11T17:23:47.235Z,5.10
2019-04-11T17:26:17.829Z,5.07
2019-04-11T17:28:47.865Z,4.70
2019-04-11T17:31:18.176Z,5.23
2019-04-11T17:33:48.150Z,5.50
2019-04-11T17:36:18.137Z,5.73
2019-04-11T17:38:48.137Z,5.07
2019-04-11T17:41:18.124Z,5.10
2019-04-11T17:43:51.511Z,5.43
2019-04-11T17:46:19.869Z,5.13
2019-04-11T17:48:50.543Z,4.80
2019-04-11T17:51:21.729Z,5.03
2019-04-11T17:53:54.689Z,5.30
2019-04-11T17:56:25.495Z,5.50
2019-04-11T17:58:57.904Z,5.10
2019-04-11T18:01:26.950Z,5.27
2019-04-11T18:03:56.944Z,5.60
2019-04-11T18:06:26.897Z,5.27
2019-04-11T18:08:56.873Z,5.50
2019-04-11T18:11:27.013Z,5.43
2019-04-11T18:14:00.692Z,5.90
2019-04-11T18:16:31.639Z,5.17
2019-04-11T18:19:05.874Z,5.30
2019-04-11T18:21:34.874Z,5.90
2019-04-11T18:24:05.781Z,5.63
2019-04-11T18:26:35.769Z,7.10
2019-04-11T18:29:05.769Z,6.83
2019-04-11T18:31:35.893Z,5.87
2019-04-11T18:34:05.874Z,5.53
2019-04-11T18:36:37.358Z,5.17
2019-04-11T18:39:08.201Z,5.47
2019-04-11T18:41:38.835Z,5.67
2019-04-11T18:44:08.832Z,5.10
2019-04-11T18:46:39.990Z,5.50
2019-04-11T18:49:10.034Z,6.27
2019-04-11T18:51:40.126Z,5.37
2019-04-11T18:54:10.121Z,5.57
2019-04-11T18:56:40.081Z,5.43
2019-04-11T18:59:10.065Z,4.83
2019-04-11T19:01:40.162Z,5.60
2019-04-11T19:04:12.136Z,5.73
2019-04-11T19:06:43.035Z,5.57
2019-04-11T19:09:15.782Z,7.57
2019-04-11T19:11:46.249Z,5.40
2019-04-11T19:14:17.098Z,5.60
2019-04-11T19:16:47.094Z,5.30
2019-04-11T19:19:18.514Z,5.30
2019-04-11T19:21:51.051Z,5.60
2019-04-11T19:24:20.505Z,5.33
2019-04-11T19:26:50.485Z,5.03
2019-04-11T19:29:24.831Z,5.20
2019-04-11T19:31:52.197Z,4.90
2019-04-11T19:34:22.253Z,5.20
2019-04-11T19:36:52.227Z,5.03
2019-04-11T19:39:23.321Z,7.13
2019-04-11T19:41:53.499Z,7.30
2019-04-11T19:44:23.503Z,7.13
2019-04-11T19:46:53.545Z,6.70
2019-04-11T19:49:23.553Z,5.10
2019-04-11T19:51:53.549Z,4.80
2019-04-11T19:54:23.529Z,5.57
2019-04-11T19:57:01.492Z,5.00
2019-04-11T19:59:31.485Z,4.70
2019-04-11T20:02:01.469Z,4.33
2019-04-11T20:04:32.615Z,5.13
2019-04-11T20:07:02.585Z,5.60
2019-04-11T20:09:32.577Z,4.87
2019-04-11T20:12:02.541Z,4.43
2019-04-11T20:14:34.868Z,4.87
2019-04-11T20:17:04.430Z,5.80
2019-04-11T20:19:34.433Z,5.80
2019-04-11T20:22:08.226Z,4.93
2019-04-11T20:24:36.345Z,5.03
2019-04-11T20:27:06.301Z,5.73
2019-04-11T20:29:36.386Z,4.73
2019-04-11T20:32:06.394Z,5.40
2019-04-11T20:34:38.519Z,3.47
2019-04-11T20:37:12.510Z,4.77
2019-04-11T20:39:39.892Z,5.03
2019-04-11T20:42:09.888Z,4.60
2019-04-11T20:44:39.873Z,5.20
2019-04-11T20:47:09.841Z,5.43
2019-04-11T20:49:48.452Z,5.33
2019-04-11T20:52:18.424Z,4.83
2019-04-11T20:54:48.400Z,5.27
2019-04-11T20:57:25.575Z,4.13
2019-04-11T20:59:50.080Z,4.50
2019-04-11T21:02:20.057Z,3.70
2019-04-11T21:04:50.049Z,4.33
2019-04-11T21:07:20.614Z,4.53
2019-04-11T21:09:51.806Z,4.83
2019-04-11T21:12:21.849Z,4.43
2019-04-11T21:14:52.085Z,4.97
2019-04-11T21:17:22.053Z,3.77
2019-04-11T21:19:53.340Z,5.20
2019-04-11T21:22:24.728Z,4.47
2019-04-11T21:24:54.873Z,3.77
2019-04-11T21:27:28.565Z,4.73
2019-04-11T21:29:59.710Z,5.23
2019-04-11T21:32:29.029Z,4.90
2019-04-11T21:35:02.120Z,4.90
2019-04-11T21:37:31.623Z,4.23
2019-04-11T21:40:02.486Z,3.87
2019-04-11T21:42:35.895Z,5.10
2019-04-11T21:45:06.155Z,5.13
2019-04-11T21:47:37.338Z,5.20
2019-04-11T21:50:09.388Z,4.67
2019-04-11T21:52:43.353Z,4.63
2019-04-11T21:55:15.228Z,4.73
2019-04-11T21:57:48.331Z,3.90
2019-04-11T22:00:22.176Z,2.77
2019-04-11T22:02:51.927Z,4.97
2019-04-11T22:05:23.517Z,5.00
2019-04-11T22:07:53.508Z,4.67
2019-04-11T22:10:23.468Z,4.90
2019-04-11T22:12:53.465Z,3.10
2019-04-11T22:15:23.720Z,4.93
2019-04-11T22:18:05.644Z,4.60
2019-04-11T22:20:56.309Z,4.53
2019-04-11T22:23:26.298Z,5.37
2019-04-11T22:25:56.269Z,5.43
2019-04-11T22:28:27.090Z,4.67
2019-04-11T22:30:57.357Z,5.43
2019-04-11T22:33:31.841Z,5.10
2019-04-11T22:36:01.805Z,5.03
2019-04-11T22:38:31.785Z,4.53
2019-04-11T22:41:02.580Z,5.03
2019-04-11T22:43:32.822Z,4.83
2019-04-11T22:46:02.865Z,4.87
2019-04-11T22:48:32.849Z,4.07
2019-04-11T22:51:02.805Z,4.53
2019-04-11T22:53:32.781Z,4.60
2019-04-11T22:56:02.754Z,4.73
2019-04-11T22:58:32.725Z,4.30
2019-04-11T23:01:02.725Z,4.43
2019-04-11T23:03:47.566Z,4.43
2019-04-11T23:06:17.799Z,5.00
2019-04-11T23:08:48.983Z,4.90
2019-04-11T23:11:19.620Z,4.97
2019-04-11T23:13:49.585Z,4.70
2019-04-11T23:16:19.569Z,4.77
2019-04-11T23:18:49.531Z,4.83
2019-04-11T23:21:19.531Z,3.87
2019-04-11T23:23:49.483Z,4.77
2019-04-11T23:26:19.522Z,4.70
2019-04-11T23:28:49.588Z,4.90
2019-04-11T23:31:20.336Z,5.70
2019-04-11T23:33:52.013Z,5.23
2019-04-11T23:36:41.782Z,4.60
2019-04-11T23:39:12.919Z,4.83
2019-04-11T23:41:43.064Z,4.33
2019-04-11T23:44:13.152Z,4.97
2019-04-11T23:46:43.248Z,5.37
2019-04-11T23:49:13.243Z,3.50
2019-04-11T23:51:43.263Z,5.10
2019-04-11T23:54:22.712Z,5.37
2019-04-11T23:56:45.023Z,4.90
2019-04-11T23:59:15.006Z,5.43
